EJA902 KLAX-KSAN
Flight info
| Callsign | EJA902 |
|---|---|
| Flight time | 0h 26m |
| Altitude | 13000 |
| Route | LAXX1 MZB |
| Aircraft | C750/M-SBDE3FGHRWXY/S |
Departure
| Time | 2026-04-21 02:01 |
|---|---|
| Airport | Los Angeles International Airport (KLAX) |
Arrival
| Time | 2026-04-21 02:27 |
|---|---|
| Airport | San Diego International Airport (KSAN) |
| Time | Latitude | Longitude | Altitude | Speed | Heading |
|---|---|---|---|---|---|
| 2026-04-21 01:44 | 33.93329 | -118.40000 | 120 ft | 0 kts | 252° |
| 2026-04-21 01:53 | 33.93332 | -118.40004 | 120 ft | 1 kts | 313° |
| 2026-04-21 01:53 | 33.93348 | -118.39989 | 121 ft | 7 kts | 50° |
| 2026-04-21 01:53 | 33.93376 | -118.39927 | 119 ft | 8 kts | 82° |
| 2026-04-21 01:53 | 33.93379 | -118.39865 | 119 ft | 7 kts | 86° |
| 2026-04-21 01:54 | 33.93389 | -118.39816 | 122 ft | 6 kts | 33° |
| 2026-04-21 01:54 | 33.93398 | -118.39813 | 121 ft | 0 kts | 9° |
| 2026-04-21 01:55 | 33.93415 | -118.39820 | 121 ft | 6 kts | 332° |
| 2026-04-21 01:55 | 33.93456 | -118.39803 | 120 ft | 9 kts | 67° |
| 2026-04-21 01:55 | 33.93468 | -118.39706 | 121 ft | 14 kts | 82° |
| 2026-04-21 01:56 | 33.93479 | -118.39589 | 120 ft | 14 kts | 84° |
| 2026-04-21 01:56 | 33.93490 | -118.39477 | 122 ft | 13 kts | 83° |
| 2026-04-21 01:56 | 33.93502 | -118.39370 | 122 ft | 13 kts | 83° |
| 2026-04-21 01:56 | 33.93512 | -118.39267 | 122 ft | 12 kts | 83° |
| 2026-04-21 01:57 | 33.93522 | -118.39169 | 122 ft | 12 kts | 83° |
| 2026-04-21 01:57 | 33.93531 | -118.39074 | 122 ft | 11 kts | 83° |
| 2026-04-21 01:57 | 33.93541 | -118.38979 | 122 ft | 13 kts | 83° |
| 2026-04-21 01:57 | 33.93554 | -118.38857 | 122 ft | 15 kts | 84° |
| 2026-04-21 01:58 | 33.93566 | -118.38737 | 119 ft | 14 kts | 83° |
| 2026-04-21 01:58 | 33.93578 | -118.38623 | 122 ft | 13 kts | 82° |
| 2026-04-21 01:58 | 33.93590 | -118.38513 | 122 ft | 13 kts | 82° |
| 2026-04-21 01:58 | 33.93601 | -118.38405 | 122 ft | 14 kts | 83° |
| 2026-04-21 01:59 | 33.93626 | -118.38295 | 121 ft | 14 kts | 47° |
| 2026-04-21 01:59 | 33.93707 | -118.38286 | 122 ft | 10 kts | 327° |
| 2026-04-21 01:59 | 33.93730 | -118.38351 | 122 ft | 8 kts | 270° |
| 2026-04-21 01:59 | 33.93727 | -118.38385 | 122 ft | 0 kts | 262° |
| 2026-04-21 02:00 | 33.93725 | -118.38400 | 120 ft | 14 kts | 262° |
| 2026-04-21 02:00 | 33.93663 | -118.39000 | 122 ft | 125 kts | 263° |
| 2026-04-21 02:00 | 33.93544 | -118.40201 | 465 ft | 156 kts | 264° |
| 2026-04-21 02:01 | 33.93475 | -118.41595 | 972 ft | 180 kts | 268° |
| 2026-04-21 02:01 | 33.93447 | -118.43226 | 1389 ft | 211 kts | 266° |
| 2026-04-21 02:01 | 33.93184 | -118.45044 | 1919 ft | 242 kts | 248° |
| 2026-04-21 02:01 | 33.92179 | -118.46728 | 2889 ft | 250 kts | 232° |
| 2026-04-21 02:02 | 33.91092 | -118.48383 | 4068 ft | 255 kts | 232° |
| 2026-04-21 02:02 | 33.90008 | -118.50103 | 5151 ft | 261 kts | 232° |
| 2026-04-21 02:02 | 33.88905 | -118.51847 | 6310 ft | 261 kts | 230° |
| 2026-04-21 02:02 | 33.87787 | -118.53593 | 7359 ft | 264 kts | 230° |
| 2026-04-21 02:03 | 33.86655 | -118.55359 | 8487 ft | 268 kts | 230° |
| 2026-04-21 02:03 | 33.85507 | -118.57142 | 9620 ft | 271 kts | 228° |
| 2026-04-21 02:03 | 33.83947 | -118.58404 | 10363 ft | 280 kts | 199° |
| 2026-04-21 02:03 | 33.81937 | -118.58799 | 10621 ft | 307 kts | 185° |
| 2026-04-21 02:04 | 33.79714 | -118.58898 | 10854 ft | 332 kts | 182° |
| 2026-04-21 02:04 | 33.77414 | -118.58938 | 11663 ft | 333 kts | 182° |
| 2026-04-21 02:04 | 33.75085 | -118.58953 | 12483 ft | 335 kts | 182° |
| 2026-04-21 02:04 | 33.72730 | -118.58948 | 13006 ft | 347 kts | 182° |
| 2026-04-21 02:05 | 33.70253 | -118.58526 | 12968 ft | 376 kts | 164° |
| 2026-04-21 02:05 | 33.67865 | -118.57054 | 12992 ft | 389 kts | 148° |
| 2026-04-21 02:05 | 33.65903 | -118.54762 | 12995 ft | 402 kts | 131° |
| 2026-04-21 02:05 | 33.64567 | -118.51765 | 12983 ft | 413 kts | 113° |
| 2026-04-21 02:06 | 33.63831 | -118.48388 | 13021 ft | 419 kts | 106° |
| 2026-04-21 02:06 | 33.63201 | -118.44973 | 13017 ft | 420 kts | 105° |
| 2026-04-21 02:06 | 33.62548 | -118.41556 | 13012 ft | 420 kts | 107° |
| 2026-04-21 02:06 | 33.61861 | -118.38196 | 13012 ft | 420 kts | 107° |
| 2026-04-21 02:07 | 33.61167 | -118.34780 | 13007 ft | 421 kts | 107° |
| 2026-04-21 02:07 | 33.60499 | -118.31356 | 13007 ft | 421 kts | 106° |
| 2026-04-21 02:07 | 33.59830 | -118.27939 | 13000 ft | 421 kts | 107° |
| 2026-04-21 02:07 | 33.59143 | -118.24515 | 12996 ft | 421 kts | 107° |
| 2026-04-21 02:08 | 33.58454 | -118.21100 | 12995 ft | 421 kts | 107° |
| 2026-04-21 02:08 | 33.57773 | -118.17678 | 12975 ft | 422 kts | 106° |
| 2026-04-21 02:08 | 33.57100 | -118.14297 | 12971 ft | 422 kts | 106° |
| 2026-04-21 02:08 | 33.56413 | -118.10875 | 12969 ft | 422 kts | 107° |
| 2026-04-21 02:09 | 33.55722 | -118.07448 | 12978 ft | 422 kts | 107° |
| 2026-04-21 02:09 | 33.55034 | -118.04026 | 12975 ft | 422 kts | 107° |
| 2026-04-21 02:09 | 33.54346 | -118.00607 | 12976 ft | 422 kts | 106° |
| 2026-04-21 02:09 | 33.53656 | -117.97187 | 12977 ft | 422 kts | 107° |
| 2026-04-21 02:10 | 33.52965 | -117.93766 | 12975 ft | 422 kts | 107° |
| 2026-04-21 02:10 | 33.52272 | -117.90341 | 12976 ft | 422 kts | 107° |
| 2026-04-21 02:10 | 33.51575 | -117.86905 | 12978 ft | 422 kts | 107° |
| 2026-04-21 02:10 | 33.50882 | -117.83490 | 12978 ft | 422 kts | 107° |
| 2026-04-21 02:11 | 33.50188 | -117.80073 | 12978 ft | 422 kts | 107° |
| 2026-04-21 02:11 | 33.49492 | -117.76656 | 12976 ft | 422 kts | 107° |
| 2026-04-21 02:11 | 33.48740 | -117.73262 | 12961 ft | 421 kts | 111° |
| 2026-04-21 02:11 | 33.47524 | -117.70102 | 12967 ft | 416 kts | 123° |
| 2026-04-21 02:12 | 33.45882 | -117.67332 | 12974 ft | 412 kts | 133° |
| 2026-04-21 02:12 | 33.43872 | -117.64888 | 12979 ft | 411 kts | 139° |
| 2026-04-21 02:12 | 33.41818 | -117.62502 | 12990 ft | 411 kts | 139° |
| 2026-04-21 02:12 | 33.39783 | -117.60099 | 12998 ft | 411 kts | 138° |
| 2026-04-21 02:13 | 33.37740 | -117.57699 | 12995 ft | 411 kts | 139° |
| 2026-04-21 02:13 | 33.35688 | -117.55314 | 12995 ft | 411 kts | 139° |
| 2026-04-21 02:13 | 33.33638 | -117.52931 | 12996 ft | 411 kts | 139° |
| 2026-04-21 02:13 | 33.31595 | -117.50544 | 12998 ft | 411 kts | 139° |
| 2026-04-21 02:14 | 33.29556 | -117.48162 | 12997 ft | 401 kts | 139° |
| 2026-04-21 02:14 | 33.27641 | -117.45923 | 12983 ft | 381 kts | 139° |
| 2026-04-21 02:14 | 33.25747 | -117.43729 | 12983 ft | 379 kts | 139° |
| 2026-04-21 02:14 | 33.23692 | -117.41817 | 12961 ft | 372 kts | 152° |
| 2026-04-21 02:15 | 33.21327 | -117.40601 | 12987 ft | 369 kts | 163° |
| 2026-04-21 02:15 | 33.18936 | -117.39612 | 12995 ft | 369 kts | 163° |
| 2026-04-21 02:15 | 33.16516 | -117.38601 | 12998 ft | 369 kts | 163° |
| 2026-04-21 02:15 | 33.14101 | -117.37565 | 12996 ft | 368 kts | 162° |
| 2026-04-21 02:16 | 33.11937 | -117.36060 | 12984 ft | 346 kts | 146° |
| 2026-04-21 02:16 | 33.10111 | -117.34423 | 12989 ft | 311 kts | 147° |
| 2026-04-21 02:16 | 33.08403 | -117.32950 | 12992 ft | 301 kts | 148° |
| 2026-04-21 02:16 | 33.06692 | -117.31488 | 12754 ft | 303 kts | 147° |
| 2026-04-21 02:17 | 33.04993 | -117.30000 | 12368 ft | 301 kts | 147° |
| 2026-04-21 02:17 | 33.03316 | -117.28524 | 11978 ft | 298 kts | 147° |
| 2026-04-21 02:17 | 33.01650 | -117.27074 | 11590 ft | 295 kts | 147° |
| 2026-04-21 02:17 | 33.00001 | -117.25642 | 11203 ft | 293 kts | 146° |
| 2026-04-21 02:18 | 32.98380 | -117.24231 | 10821 ft | 291 kts | 146° |
| 2026-04-21 02:18 | 32.96755 | -117.22815 | 10443 ft | 289 kts | 146° |
| 2026-04-21 02:18 | 32.95135 | -117.21405 | 10053 ft | 287 kts | 146° |
| 2026-04-21 02:18 | 32.93530 | -117.20010 | 9649 ft | 285 kts | 146° |
| 2026-04-21 02:19 | 32.91935 | -117.18623 | 9267 ft | 283 kts | 146° |
| 2026-04-21 02:19 | 32.90345 | -117.17244 | 8890 ft | 282 kts | 146° |
| 2026-04-21 02:19 | 32.88762 | -117.15868 | 8517 ft | 281 kts | 146° |
| 2026-04-21 02:19 | 32.87185 | -117.14498 | 8136 ft | 280 kts | 146° |
| 2026-04-21 02:20 | 32.85614 | -117.13136 | 7783 ft | 278 kts | 146° |
| 2026-04-21 02:20 | 32.84582 | -117.12240 | 7544 ft | 277 kts | 146° |
| 2026-04-21 02:20 | 32.83029 | -117.10893 | 7187 ft | 276 kts | 146° |
| 2026-04-21 02:20 | 32.81482 | -117.09554 | 6826 ft | 274 kts | 146° |
| 2026-04-21 02:21 | 32.79945 | -117.08223 | 6459 ft | 273 kts | 146° |
| 2026-04-21 02:21 | 32.78457 | -117.06831 | 6056 ft | 272 kts | 137° |
| 2026-04-21 02:21 | 32.77521 | -117.04889 | 5926 ft | 274 kts | 111° |
| 2026-04-21 02:21 | 32.76959 | -117.02707 | 5932 ft | 278 kts | 108° |
| 2026-04-21 02:22 | 32.76436 | -117.00488 | 5638 ft | 279 kts | 107° |
| 2026-04-21 02:22 | 32.75887 | -116.98282 | 5272 ft | 276 kts | 110° |
| 2026-04-21 02:22 | 32.74826 | -116.96435 | 4830 ft | 267 kts | 142° |
| 2026-04-21 02:22 | 32.73227 | -116.95522 | 4509 ft | 249 kts | 169° |
| 2026-04-21 02:23 | 32.71557 | -116.95577 | 4206 ft | 235 kts | 195° |
| 2026-04-21 02:23 | 32.70146 | -116.96440 | 3922 ft | 226 kts | 219° |
| 2026-04-21 02:23 | 32.69191 | -116.97897 | 3643 ft | 224 kts | 243° |
| 2026-04-21 02:23 | 32.68835 | -116.99678 | 3361 ft | 223 kts | 268° |
| 2026-04-21 02:24 | 32.69097 | -117.01478 | 3088 ft | 221 kts | 286° |
| 2026-04-21 02:24 | 32.69532 | -117.03223 | 2831 ft | 220 kts | 286° |
| 2026-04-21 02:24 | 32.69945 | -117.04928 | 2548 ft | 215 kts | 285° |
| 2026-04-21 02:24 | 32.70349 | -117.06592 | 2239 ft | 192 kts | 285° |
| 2026-04-21 02:25 | 32.70707 | -117.08060 | 2003 ft | 184 kts | 285° |
| 2026-04-21 02:25 | 32.71060 | -117.09502 | 1723 ft | 180 kts | 285° |
| 2026-04-21 02:25 | 32.71384 | -117.10834 | 1462 ft | 156 kts | 286° |
| 2026-04-21 02:25 | 32.71673 | -117.12029 | 1221 ft | 150 kts | 285° |
| 2026-04-21 02:26 | 32.71959 | -117.13198 | 1006 ft | 142 kts | 284° |
| 2026-04-21 02:26 | 32.72218 | -117.14257 | 789 ft | 125 kts | 285° |
| 2026-04-21 02:26 | 32.72450 | -117.15214 | 613 ft | 119 kts | 285° |
| 2026-04-21 02:26 | 32.72678 | -117.16156 | 410 ft | 118 kts | 285° |
| 2026-04-21 02:27 | 32.72907 | -117.17077 | 240 ft | 115 kts | 285° |
| 2026-04-21 02:27 | 32.73119 | -117.18001 | 48 ft | 114 kts | 285° |
| 2026-04-21 02:27 | 32.73313 | -117.18794 | 17 ft | 73 kts | 286° |
| 2026-04-21 02:27 | 32.73391 | -117.19078 | 17 ft | 15 kts | 313° |
| 2026-04-21 02:28 | 32.73477 | -117.19062 | 15 ft | 7 kts | 47° |
| 2026-04-21 02:28 | 32.73484 | -117.19030 | 15 ft | 4 kts | 87° |
| 2026-04-21 02:28 | 32.73483 | -117.19021 | 15 ft | 0 kts | 92° |
| 2026-04-21 02:29 | 32.73483 | -117.19015 | 15 ft | 4 kts | 97° |
| 2026-04-21 02:29 | 32.73469 | -117.18954 | 15 ft | 12 kts | 106° |
| 2026-04-21 02:29 | 32.73443 | -117.18849 | 15 ft | 13 kts | 106° |
| 2026-04-21 02:29 | 32.73418 | -117.18744 | 13 ft | 13 kts | 106° |
| 2026-04-21 02:30 | 32.73390 | -117.18633 | 18 ft | 13 kts | 106° |
| 2026-04-21 02:30 | 32.73366 | -117.18534 | 21 ft | 11 kts | 106° |
| 2026-04-21 02:30 | 32.73346 | -117.18448 | 23 ft | 11 kts | 105° |
| 2026-04-21 02:30 | 32.73321 | -117.18348 | 19 ft | 15 kts | 106° |
| 2026-04-21 02:31 | 32.73291 | -117.18223 | 19 ft | 16 kts | 106° |
| 2026-04-21 02:31 | 32.73261 | -117.18101 | 19 ft | 15 kts | 106° |
| 2026-04-21 02:31 | 32.73256 | -117.17985 | 19 ft | 14 kts | 39° |
| 2026-04-21 02:31 | 32.73334 | -117.17956 | 21 ft | 10 kts | 19° |
| 2026-04-21 02:32 | 32.73397 | -117.17904 | 19 ft | 11 kts | 83° |
| 2026-04-21 02:32 | 32.73361 | -117.17855 | 19 ft | 0 kts | 150° |